Time;durP1;ratioP1;P1;durP2;ratioP2;P2;SDS_P1;SDS_P2;PMS_P1;PMS_P2;Temp;Humidity;BMP_temperature;BMP_pressure;BME280_temperature;BME280_humidity;BME280_pressure;Samples;Min_cycle;Max_cycle;Signal;HPM_P1;HPM_P2
2021/03/31 00:01:23;;;;;;;8.47;4.53;;;;;;;11.53;37.79;96581.19;5069878;28;20613;-73
2021/03/31 00:03:49;;;;;;;9.40;4.33;;;;;;;11.42;38.01;96580.44;5053121;28;20295;-72
2021/03/31 00:06:14;;;;;;;8.40;4.63;;;;;;;11.43;38.21;96582.06;5069720;28;20639;-72
2021/03/31 00:08:39;;;;;;;9.53;4.80;;;;;;;11.37;38.38;96575.59;5071232;28;20598;-73
2021/03/31 00:11:05;;;;;;;8.57;5.03;;;;;;;11.43;38.19;96576.88;5069869;28;20177;-73
2021/03/31 00:13:30;;;;;;;8.63;4.97;;;;;;;11.34;38.84;96575.88;5069863;28;20239;-73
2021/03/31 00:15:56;;;;;;;8.97;4.90;;;;;;;11.29;38.73;96575.41;5069560;28;20185;-73
2021/03/31 00:18:22;;;;;;;6.17;4.97;;;;;;;11.29;38.77;96578.81;5070962;28;20546;-73
2021/03/31 00:20:48;;;;;;;7.57;5.10;;;;;;;11.43;38.45;96569.91;5053045;28;20239;-73
2021/03/31 00:23:15;;;;;;;8.40;5.70;;;;;;;11.35;38.82;96569.72;5069842;28;20203;-73
2021/03/31 00:25:41;;;;;;;9.20;6.00;;;;;;;11.38;38.88;96561.63;5086442;28;20185;-73
2021/03/31 00:28:07;;;;;;;9.77;5.80;;;;;;;11.41;38.76;96560.59;5069768;28;20170;-73
2021/03/31 00:30:33;;;;;;;8.43;5.63;;;;;;;11.64;38.21;96557.69;5069619;28;20176;-73
2021/03/31 00:32:58;;;;;;;9.50;6.13;;;;;;;11.67;38.08;96561.00;5056244;28;20201;-73
2021/03/31 00:35:24;;;;;;;12.40;6.33;;;;;;;11.55;38.28;96557.63;5073362;28;20258;-73
2021/03/31 00:37:49;;;;;;;11.93;6.20;;;;;;;11.51;38.44;96557.06;5056702;28;20231;-73
2021/03/31 00:40:17;;;;;;;11.73;6.57;;;;;;;11.48;38.67;96559.91;5073402;28;20251;-73
2021/03/31 00:42:43;;;;;;;9.47;6.13;;;;;;;11.44;38.75;96560.31;5073096;28;20216;-73
2021/03/31 00:45:10;;;;;;;8.83;6.13;;;;;;;11.39;39.03;96562.47;5073065;28;20649;-73
2021/03/31 00:47:36;;;;;;;9.30;5.97;;;;;;;11.37;38.74;96560.00;5073226;28;20597;-73
2021/03/31 00:50:03;;;;;;;10.67;6.27;;;;;;;11.31;39.21;96556.16;5073365;28;20261;-73
2021/03/31 00:52:28;;;;;;;7.73;5.87;;;;;;;11.31;39.15;96547.53;5074453;28;20258;-73
2021/03/31 00:54:54;;;;;;;9.43;6.13;;;;;;;11.35;39.14;96551.50;5072914;28;20183;-73
2021/03/31 00:57:19;;;;;;;10.30;6.03;;;;;;;11.27;39.41;96548.72;5052966;28;20300;-72
2021/03/31 00:59:45;;;;;;;8.63;6.23;;;;;;;11.33;39.07;96550.81;5069676;28;20181;-72
2021/03/31 01:02:10;;;;;;;9.83;6.50;;;;;;;11.24;39.07;96543.78;5052777;28;20407;-73
2021/03/31 01:04:36;;;;;;;9.03;6.10;;;;;;;11.19;39.17;96543.31;5069336;28;20278;-73
2021/03/31 01:07:01;;;;;;;8.93;5.93;;;;;;;11.22;38.91;96538.72;5069877;28;20190;-73
2021/03/31 01:09:27;;;;;;;10.97;7.07;;;;;;;11.20;38.92;96539.75;5069424;28;20213;-73
2021/03/31 01:11:58;;;;;;;11.93;7.23;;;;;;;11.32;38.34;96541.38;5069267;28;20622;-73
2021/03/31 01:14:57;;;;;;;12.83;7.13;;;;;;;11.52;37.63;96540.50;5069100;28;20178;-73
2021/03/31 01:17:30;;;;;;;9.83;6.83;;;;;;;11.59;37.95;96530.41;5052820;28;20178;-73
2021/03/31 01:20:13;;;;;;;10.53;6.20;;;;;;;11.64;37.13;96531.66;5069271;28;20190;-73
2021/03/31 01:23:00;;;;;;;10.00;6.60;;;;;;;11.54;37.42;96533.41;5069315;28;20700;-73
2021/03/31 01:25:43;;;;;;;10.17;6.83;;;;;;;11.52;36.85;96530.09;5069015;28;20182;-73
2021/03/31 01:28:27;;;;;;;11.33;6.40;;;;;;;11.54;37.12;96522.16;5069330;28;20178;-73
2021/03/31 01:31:06;;;;;;;15.00;7.17;;;;;;;11.54;37.12;96524.78;5052406;28;20554;-73
2021/03/31 01:33:50;;;;;;;10.47;6.63;;;;;;;11.59;37.19;96517.41;5052334;28;20197;-73
2021/03/31 01:36:17;;;;;;;11.20;6.00;;;;;;;11.60;37.00;96509.47;5052076;28;20178;-73
2021/03/31 01:38:49;;;;;;;10.97;6.53;;;;;;;11.54;37.31;96514.38;5053544;28;20577;-73
2021/03/31 01:41:17;;;;;;;9.37;6.00;;;;;;;11.45;37.70;96515.97;5068621;28;20251;-73
2021/03/31 01:43:43;;;;;;;8.40;5.73;;;;;;;11.32;37.72;96507.56;5067737;28;20256;-73
2021/03/31 01:46:08;;;;;;;11.17;5.70;;;;;;;11.30;38.06;96504.25;5068572;28;20619;-73
2021/03/31 01:48:33;;;;;;;8.50;5.50;;;;;;;11.20;38.44;96508.56;5068852;28;20185;-73
2021/03/31 01:51:03;;;;;;;7.80;5.47;;;;;;;11.15;38.35;96497.75;5068788;28;20178;-73
2021/03/31 01:53:29;;;;;;;8.70;6.03;;;;;;;11.06;38.72;96504.53;5068493;28;20666;-73
2021/03/31 01:55:54;;;;;;;8.43;5.73;;;;;;;11.03;38.93;96499.56;5068451;28;20178;-73
2021/03/31 01:58:20;;;;;;;11.00;6.07;;;;;;;11.00;38.94;96500.66;5051782;28;20189;-73
2021/03/31 02:00:47;;;;;;;6.90;5.20;;;;;;;10.98;38.97;96492.16;5068468;28;20205;-73
2021/03/31 02:03:14;;;;;;;9.30;6.10;;;;;;;11.01;39.00;96491.91;5051745;28;20209;-73
2021/03/31 02:05:40;;;;;;;11.33;6.47;;;;;;;11.07;38.91;96490.59;5068223;28;20594;-72
2021/03/31 02:08:05;;;;;;;7.87;5.67;;;;;;;11.13;38.83;96484.88;5068388;28;20178;-73
2021/03/31 02:10:31;;;;;;;9.13;6.03;;;;;;;11.07;38.97;96486.22;5068291;28;20174;-73
2021/03/31 02:12:58;;;;;;;8.20;5.93;;;;;;;11.06;39.17;96481.13;5068252;28;20213;-73
2021/03/31 02:15:27;;;;;;;8.40;6.10;;;;;;;11.16;39.17;96483.78;5068072;28;20704;-73
2021/03/31 02:17:57;;;;;;;9.93;5.87;;;;;;;11.04;39.26;96483.00;5068362;28;20178;-73
2021/03/31 02:20:22;;;;;;;8.50;5.20;;;;;;;10.98;39.69;96480.94;5052530;28;20202;-73
2021/03/31 02:22:49;;;;;;;8.10;5.40;;;;;;;10.97;39.64;96476.72;5068127;28;20204;-73
2021/03/31 02:25:14;;;;;;;9.83;5.10;;;;;;;10.95;39.78;96476.81;5067930;28;20218;-73
2021/03/31 02:27:40;;;;;;;8.90;5.43;;;;;;;10.94;39.63;96477.75;5068029;28;20186;-72
2021/03/31 02:30:10;;;;;;;10.33;6.33;;;;;;;10.82;40.08;96471.00;5051302;28;20190;-73
2021/03/31 02:32:36;;;;;;;9.83;6.40;;;;;;;10.78;40.25;96462.63;5067820;28;20280;-73
2021/03/31 02:35:02;;;;;;;8.47;5.80;;;;;;;10.70;40.54;96459.03;5067708;28;20265;-73
2021/03/31 02:37:28;;;;;;;14.00;6.37;;;;;;;10.64;40.59;96452.53;5067860;28;20220;-73
2021/03/31 02:39:54;;;;;;;8.00;5.67;;;;;;;10.64;40.84;96457.75;5067867;28;20591;-73
2021/03/31 02:42:21;;;;;;;9.57;5.50;;;;;;;10.54;41.43;96450.84;5067319;28;20304;-73
2021/03/31 02:44:49;;;;;;;9.87;6.37;;;;;;;10.54;41.50;96454.25;5051885;28;20174;-73
2021/03/31 02:47:18;;;;;;;8.97;5.70;;;;;;;10.59;41.39;96453.84;5067678;28;20260;-73
2021/03/31 02:49:46;;;;;;;8.77;5.30;;;;;;;10.61;41.60;96451.97;5067632;28;20182;-73
2021/03/31 02:52:12;;;;;;;11.00;5.97;;;;;;;10.54;41.56;96450.84;5067500;28;20219;-72
2021/03/31 02:54:38;;;;;;;10.80;6.07;;;;;;;10.52;41.77;96440.56;5067177;28;20261;-73
2021/03/31 02:57:04;;;;;;;8.50;5.80;;;;;;;10.42;42.01;96448.28;5067471;28;20630;-72
2021/03/31 02:59:29;;;;;;;9.73;6.23;;;;;;;10.32;42.11;96451.72;5067319;28;20199;-73
2021/03/31 03:01:58;;;;;;;11.67;6.17;;;;;;;10.29;42.25;96445.03;5067376;28;20698;-73
2021/03/31 03:04:23;;;;;;;12.43;5.93;;;;;;;10.22;42.60;96446.47;5067116;28;20177;-73
2021/03/31 03:06:48;;;;;;;8.73;6.33;;;;;;;10.20;42.41;96448.34;5067391;28;20185;-73
2021/03/31 03:09:15;;;;;;;10.43;6.80;;;;;;;10.30;42.03;96443.25;5050655;28;20181;-73
2021/03/31 03:11:41;;;;;;;9.87;6.70;;;;;;;10.35;41.94;96446.31;5050544;28;20212;-73
2021/03/31 03:14:07;;;;;;;13.57;6.80;;;;;;;10.33;42.15;96448.19;5050251;28;20654;-73
2021/03/31 03:16:33;;;;;;;8.50;6.50;;;;;;;10.33;42.05;96443.00;5067013;28;20185;-73
2021/03/31 03:18:59;;;;;;;9.43;6.57;;;;;;;10.31;42.07;96444.91;5067117;28;20178;-73
2021/03/31 03:21:26;;;;;;;10.67;7.53;;;;;;;10.32;42.24;96446.53;5050442;28;20215;-72
2021/03/31 03:23:52;;;;;;;11.60;6.80;;;;;;;10.26;42.31;96440.09;5067070;28;20728;-73
2021/03/31 03:26:18;;;;;;;12.87;7.50;;;;;;;10.35;42.06;96439.34;5066774;28;20257;-73
2021/03/31 03:28:45;;;;;;;10.73;7.10;;;;;;;10.24;42.62;96436.78;5051374;28;20678;-73
2021/03/31 03:31:11;;;;;;;12.07;6.80;;;;;;;10.19;42.61;96431.94;5067024;28;20181;-73
2021/03/31 03:33:37;;;;;;;12.07;6.80;;;;;;;10.17;42.69;96435.63;5050228;28;20202;-73
2021/03/31 03:36:07;;;;;;;13.33;6.80;;;;;;;10.12;42.88;96438.56;5066769;28;20173;-73
2021/03/31 03:38:33;;;;;;;8.93;6.23;;;;;;;10.20;41.98;96433.59;5066851;28;20213;-73
2021/03/31 03:41:03;;;;;;;12.97;6.60;;;;;;;10.25;41.72;96429.81;5066526;28;20201;-73
2021/03/31 03:43:28;;;;;;;10.43;6.90;;;;;;;10.14;41.71;96433.25;5066880;28;20616;-73
2021/03/31 03:45:56;;;;;;;10.73;5.60;;;;;;;10.09;41.97;96428.44;5066729;28;20261;-73
2021/03/31 03:48:21;;;;;;;8.87;5.80;;;;;;;10.06;41.82;96427.84;5066818;28;20582;-73
2021/03/31 03:50:47;;;;;;;10.97;5.87;;;;;;;10.11;41.53;96429.13;5051321;28;20185;-73
2021/03/31 03:53:12;;;;;;;9.90;6.20;;;;;;;10.02;41.67;96424.69;5066530;28;20201;-73
2021/03/31 03:55:37;;;;;;;9.73;5.60;;;;;;;9.98;41.81;96428.44;5066420;28;20182;-73
2021/03/31 03:58:05;;;;;;;9.03;5.20;;;;;;;9.99;41.73;96426.72;5066826;28;20181;-73
2021/03/31 04:00:31;;;;;;;8.87;5.60;;;;;;;9.97;41.73;96423.38;5051173;28;20194;-73
2021/03/31 04:02:56;;;;;;;7.83;5.70;;;;;;;9.91;42.09;96429.91;5051237;28;20335;-72
2021/03/31 04:05:22;;;;;;;7.97;5.57;;;;;;;9.96;41.81;96422.56;5049703;28;20239;-73
2021/03/31 04:07:48;;;;;;;10.63;6.10;;;;;;;10.08;41.60;96437.16;5069553;28;20178;-73
2021/03/31 04:10:15;;;;;;;8.00;6.20;;;;;;;10.22;41.13;96433.47;5055277;28;20182;-73
2021/03/31 04:12:40;;;;;;;9.30;5.70;;;;;;;10.16;40.88;96431.38;5070449;28;20217;-72
2021/03/31 04:15:08;;;;;;;9.13;5.80;;;;;;;10.08;40.86;96437.16;5054855;28;20242;-73
2021/03/31 04:17:35;;;;;;;8.00;5.60;;;;;;;10.00;41.17;96429.19;5053847;28;20174;-73
2021/03/31 04:20:01;;;;;;;8.33;5.73;;;;;;;10.04;41.07;96430.56;5070437;28;20185;-73
2021/03/31 04:22:27;;;;;;;9.37;5.97;;;;;;;10.00;41.17;96430.94;5070144;28;20197;-73
2021/03/31 04:24:52;;;;;;;12.33;6.77;;;;;;;10.02;41.17;96429.03;5054712;28;20594;-73
2021/03/31 04:27:18;;;;;;;7.33;5.37;;;;;;;10.04;40.99;96422.78;5070357;28;20625;-73
2021/03/31 04:29:44;;;;;;;9.33;5.93;;;;;;;10.10;41.04;96426.66;5053553;28;20232;-73
2021/03/31 04:32:13;;;;;;;8.57;5.73;;;;;;;10.01;41.27;96435.19;5070146;28;20178;-73
2021/03/31 04:34:38;;;;;;;7.27;5.07;;;;;;;9.99;41.10;96430.13;5070217;28;20547;-72
2021/03/31 04:37:04;;;;;;;6.43;5.27;;;;;;;10.02;41.25;96426.44;5069984;28;20189;-73
2021/03/31 04:39:29;;;;;;;9.13;6.07;;;;;;;9.99;41.01;96424.94;5053321;28;20178;-73
2021/03/31 04:41:55;;;;;;;9.83;5.40;;;;;;;9.91;41.10;96425.53;5069742;28;20214;-73
2021/03/31 04:44:20;;;;;;;9.20;6.00;;;;;;;9.86;41.14;96425.06;5069777;28;20646;-73
2021/03/31 04:46:45;;;;;;;8.97;5.30;;;;;;;9.87;41.18;96424.13;5054525;28;20201;-73
2021/03/31 04:49:10;;;;;;;9.67;5.63;;;;;;;9.79;41.34;96423.91;5054362;28;20178;-73
2021/03/31 04:51:36;;;;;;;8.63;5.50;;;;;;;9.76;41.84;96423.34;5054480;28;20181;-73
2021/03/31 04:54:01;;;;;;;7.53;5.13;;;;;;;9.85;41.32;96428.63;5052910;28;20645;-72
2021/03/31 04:56:26;;;;;;;8.50;5.60;;;;;;;9.94;41.04;96430.47;5069598;28;20189;-72
2021/03/31 04:58:51;;;;;;;9.33;6.30;;;;;;;9.98;41.04;96432.81;5069778;28;20403;-73
2021/03/31 05:01:17;;;;;;;9.20;5.30;;;;;;;10.08;40.41;96428.56;5054154;28;20205;-72
2021/03/31 05:03:42;;;;;;;8.27;5.63;;;;;;;10.10;40.67;96427.50;5053991;28;20206;-72
2021/03/31 05:06:07;;;;;;;9.80;6.10;;;;;;;10.09;40.49;96423.25;5069327;28;20185;-73
2021/03/31 05:08:33;;;;;;;8.03;5.73;;;;;;;10.14;40.52;96420.25;5054181;28;20182;-74
2021/03/31 05:10:58;;;;;;;9.23;5.33;;;;;;;10.05;40.62;96427.00;5052996;28;20178;-74
2021/03/31 05:13:23;;;;;;;10.53;6.23;;;;;;;10.08;40.58;96421.59;5053934;28;20267;-74
2021/03/31 05:15:49;;;;;;;11.00;6.17;;;;;;;10.05;41.07;96423.59;5069237;28;20609;-74
2021/03/31 05:18:14;;;;;;;7.93;5.17;;;;;;;10.13;40.66;96423.81;5069350;28;20182;-74
2021/03/31 05:20:40;;;;;;;12.50;5.33;;;;;;;10.04;41.06;96419.34;5052641;28;20543;-73
2021/03/31 05:23:05;;;;;;;9.07;5.73;;;;;;;9.98;41.14;96425.03;5052467;28;20197;-74
2021/03/31 05:25:30;;;;;;;11.57;5.63;;;;;;;9.97;41.27;96413.00;5069151;28;20526;-74
2021/03/31 05:27:56;;;;;;;9.50;5.70;;;;;;;9.98;41.19;96419.84;5069250;28;20216;-74
2021/03/31 05:30:22;;;;;;;13.10;6.53;;;;;;;10.09;40.73;96414.63;5069272;28;20545;-74
2021/03/31 05:32:47;;;;;;;8.50;5.97;;;;;;;10.31;40.29;96411.97;5068906;28;20355;-73
2021/03/31 05:35:13;;;;;;;14.43;6.23;;;;;;;10.43;40.34;96411.00;5075222;28;20455;-74
2021/03/31 05:37:38;;;;;;;9.77;6.73;;;;;;;10.61;39.50;96408.66;5069108;28;20192;-74
2021/03/31 05:40:05;;;;;;;14.13;6.80;;;;;;;10.64;39.38;96411.00;5055639;28;20201;-74
2021/03/31 05:42:31;;;;;;;10.97;6.20;;;;;;;10.66;39.90;96403.88;5071668;28;20216;-74
2021/03/31 05:44:59;;;;;;;8.97;5.47;;;;;;;10.79;39.80;96403.72;5071030;28;20219;-74
2021/03/31 05:47:33;;;;;;;13.97;7.00;;;;;;;10.80;39.91;96400.16;5062779;28;20221;-74
2021/03/31 05:49:59;;;;;;;11.20;6.53;;;;;;;10.87;39.66;96406.50;5084797;28;20203;-74
2021/03/31 05:52:24;;;;;;;13.53;6.37;;;;;;;10.85;40.20;96403.16;5071816;28;20571;-74
2021/03/31 05:54:50;;;;;;;13.10;6.13;;;;;;;10.93;39.66;96405.94;5073020;28;20231;-74
2021/03/31 05:57:20;;;;;;;10.13;6.40;;;;;;;10.93;39.92;96405.13;5071774;28;20177;-74
2021/03/31 05:59:45;;;;;;;8.80;6.13;;;;;;;11.02;39.89;96402.59;5071743;28;20231;-74
2021/03/31 06:02:13;;;;;;;7.10;5.57;;;;;;;11.05;39.99;96397.16;5054667;28;20204;-74
2021/03/31 06:04:40;;;;;;;12.63;6.63;;;;;;;11.12;40.41;96405.22;5071569;28;20177;-74
2021/03/31 06:07:06;;;;;;;12.67;6.73;;;;;;;11.29;39.68;96401.19;5067731;28;20612;-74
2021/03/31 06:09:31;;;;;;;11.27;6.73;;;;;;;11.34;39.69;96399.84;5066399;28;20177;-74
2021/03/31 06:11:58;;;;;;;11.90;6.47;;;;;;;11.48;39.47;96397.84;5065440;28;20186;-74
2021/03/31 06:14:42;;;;;;;10.23;6.40;;;;;;;11.59;39.56;96403.78;5052424;28;20173;-74
2021/03/31 06:17:12;;;;;;;11.53;6.30;;;;;;;11.63;39.45;96402.53;5052806;28;20216;-74
2021/03/31 06:19:42;;;;;;;9.63;6.30;;;;;;;11.77;39.35;96395.31;5062654;28;20276;-75
2021/03/31 06:22:26;;;;;;;8.77;5.90;;;;;;;11.80;39.42;96403.69;5034752;28;20288;-74
2021/03/31 06:25:10;;;;;;;8.30;6.23;;;;;;;11.90;39.36;96407.13;5051046;28;20178;-74
2021/03/31 06:27:35;;;;;;;9.00;6.07;;;;;;;12.00;39.35;96403.72;5035052;28;20570;-74
2021/03/31 06:30:04;;;;;;;12.17;6.30;;;;;;;12.00;39.67;96401.13;5050750;28;20178;-74
2021/03/31 06:32:41;;;;;;;9.43;5.87;;;;;;;12.08;39.44;96399.50;5080848;28;20706;-74
2021/03/31 06:35:16;;;;;;;9.10;6.07;;;;;;;12.08;39.62;96404.69;5065582;28;20737;-74
2021/03/31 06:37:42;;;;;;;9.03;5.73;;;;;;;12.21;39.61;96401.84;5053243;28;20188;-73
2021/03/31 06:40:26;;;;;;;10.63;6.13;;;;;;;12.27;39.51;96406.47;5081131;28;20209;-74
2021/03/31 06:42:51;;;;;;;8.83;5.90;;;;;;;12.34;39.16;96401.56;5070811;28;20562;-73
2021/03/31 06:45:19;;;;;;;9.73;5.70;;;;;;;12.43;38.94;96409.38;5070462;28;20688;-73
2021/03/31 06:47:57;;;;;;;8.23;6.00;;;;;;;12.49;38.82;96402.78;5063402;28;20198;-74
2021/03/31 06:50:23;;;;;;;8.40;5.13;;;;;;;12.56;38.87;96396.06;5063026;28;20180;-74
2021/03/31 06:52:56;;;;;;;10.23;5.60;;;;;;;12.64;39.08;96393.59;5070833;28;20200;-74
2021/03/31 06:55:23;;;;;;;10.70;5.73;;;;;;;12.75;38.87;96395.22;5070349;28;20173;-74
2021/03/31 06:57:52;;;;;;;9.67;5.40;;;;;;;12.87;38.20;96398.47;5053979;28;20177;-74
2021/03/31 07:00:23;;;;;;;8.70;5.20;;;;;;;13.00;38.16;96401.59;5053675;28;20189;-74
2021/03/31 07:02:50;;;;;;;8.03;4.90;;;;;;;13.13;37.58;96394.28;5053753;28;20673;-75
2021/03/31 07:05:15;;;;;;;8.43;5.47;;;;;;;13.31;37.13;96400.41;5070420;28;20177;-74
2021/03/31 07:07:41;;;;;;;8.03;5.37;;;;;;;13.40;36.80;96400.53;5070503;28;20192;-75
2021/03/31 07:10:10;;;;;;;9.23;5.20;;;;;;;13.60;36.06;96399.44;5070379;28;20287;-74
2021/03/31 07:12:47;;;;;;;8.87;4.33;;;;;;;13.35;38.91;96400.16;5053477;28;20205;-75
2021/03/31 07:15:16;;;;;;;7.40;4.50;;;;;;;13.07;39.66;96407.88;5070250;28;20183;-75
2021/03/31 07:17:45;;;;;;;8.10;4.77;;;;;;;13.00;39.95;96407.63;5070362;28;20173;-74
2021/03/31 07:20:11;;;;;;;6.33;4.17;;;;;;;13.00;39.98;96406.81;5053770;28;20182;-74
2021/03/31 07:22:37;;;;;;;7.23;3.80;;;;;;;13.01;39.86;96401.47;5053517;28;20199;-74
2021/03/31 07:25:04;;;;;;;9.33;4.40;;;;;;;13.12;40.12;96408.28;5070182;28;20174;-74
2021/03/31 07:27:31;;;;;;;7.27;4.20;;;;;;;13.25;39.72;96405.38;5070013;28;20181;-74
2021/03/31 07:30:07;;;;;;;8.87;5.27;;;;;;;13.28;40.04;96407.72;5071428;28;20177;-74
2021/03/31 07:32:47;;;;;;;6.27;4.63;;;;;;;13.39;38.85;96406.72;5054903;28;20210;-76
2021/03/31 07:35:12;;;;;;;7.20;4.53;;;;;;;13.46;38.08;96403.38;5071089;28;20261;-75
2021/03/31 07:37:38;;;;;;;8.50;4.67;;;;;;;13.68;37.34;96406.56;5087044;28;20217;-76
2021/03/31 07:40:07;;;;;;;7.53;5.17;;;;;;;13.81;33.81;96396.59;5070039;28;20177;-76
2021/03/31 07:42:33;;;;;;;7.77;4.87;;;;;;;13.94;33.13;96402.28;5086447;28;20649;-73
2021/03/31 07:45:00;;;;;;;8.70;5.20;;;;;;;14.04;33.26;96407.44;5054388;28;20173;-79
2021/03/31 07:47:27;;;;;;;10.13;5.67;;;;;;;14.12;33.59;96404.91;5053376;28;20223;-73
2021/03/31 07:49:54;;;;;;;8.97;4.83;;;;;;;14.20;33.78;96406.78;5071184;28;20180;-74
2021/03/31 07:52:19;;;;;;;7.07;5.07;;;;;;;14.27;34.03;96403.44;5053085;28;20208;-74
2021/03/31 07:54:45;;;;;;;9.47;4.87;;;;;;;14.34;34.37;96399.25;5069846;28;20181;-74
2021/03/31 07:57:28;;;;;;;12.40;5.17;;;;;;;14.41;34.38;96405.53;5071328;28;20258;-74
2021/03/31 07:59:53;;;;;;;9.00;4.80;;;;;;;14.67;33.82;96407.41;5070338;28;20667;-73
2021/03/31 08:02:20;;;;;;;6.07;4.13;;;;;;;14.70;33.76;96409.69;5071165;28;20217;-73
2021/03/31 08:04:45;;;;;;;7.40;4.40;;;;;;;14.90;33.93;96410.31;5069555;28;20181;-73
2021/03/31 08:07:31;;;;;;;10.13;4.70;;;;;;;14.97;33.42;96406.94;5071223;28;20187;-73
2021/03/31 08:10:30;;;;;;;6.93;4.37;;;;;;;15.19;34.88;96407.38;5053482;28;20315;-73
2021/03/31 08:12:56;;;;;;;8.70;4.17;;;;;;;15.26;34.64;96409.22;5050651;28;20258;-73
2021/03/31 08:15:40;;;;;;;7.03;4.00;;;;;;;15.43;33.44;96411.94;5069255;28;20648;-74
2021/03/31 08:18:05;;;;;;;10.67;5.00;;;;;;;15.52;32.47;96417.06;5063987;28;20716;-73
2021/03/31 08:20:37;;;;;;;8.35;4.72;;;;;;;15.52;32.40;96417.06;5064772;28;20285;-74
2021/03/31 08:23:02;;;;;;;8.10;4.57;;;;;;;15.56;32.45;96414.97;5066618;28;20208;-73
2021/03/31 08:25:30;;;;;;;6.15;4.45;;;;;;;15.59;31.94;96412.84;5057974;28;20181;-73
2021/03/31 08:27:57;;;;;;;6.90;4.50;;;;;;;15.61;31.96;96417.13;5053242;28;20264;-73
2021/03/31 08:30:24;;;;;;;5.65;4.28;;;;;;;15.57;32.71;96417.41;5054006;28;20174;-74
2021/03/31 08:32:49;;;;;;;5.23;3.67;;;;;;;15.63;33.53;96423.84;5065710;28;20673;-73
2021/03/31 08:35:15;;;;;;;5.60;4.13;;;;;;;15.69;33.10;96422.41;5065740;28;20197;-74
2021/03/31 08:37:43;;;;;;;5.88;3.65;;;;;;;15.79;34.25;96417.84;5057928;28;20223;-74
2021/03/31 08:40:09;;;;;;;7.15;3.65;;;;;;;15.85;34.59;96419.84;5055447;28;20205;-74
2021/03/31 08:42:34;;;;;;;8.95;3.55;;;;;;;15.94;34.52;96416.25;5064198;28;20677;-73
2021/03/31 08:45:03;;;;;;;7.63;3.95;;;;;;;15.98;34.40;96412.31;5064729;28;20728;-74
2021/03/31 08:47:33;;;;;;;7.20;4.28;;;;;;;16.06;34.05;96417.59;5050418;28;20178;-74
2021/03/31 08:50:08;;;;;;;6.93;4.37;;;;;;;16.20;34.26;96410.09;5050767;28;20174;-73
2021/03/31 08:52:35;;;;;;;5.63;3.95;;;;;;;16.21;34.64;96409.13;5056494;28;20585;-74
2021/03/31 08:55:04;;;;;;;7.15;4.30;;;;;;;16.24;34.84;96412.22;5064366;28;20652;-77
2021/03/31 08:57:30;;;;;;;7.28;3.63;;;;;;;16.32;34.36;96408.78;5072481;28;20174;-73
2021/03/31 09:00:00;;;;;;;5.57;3.60;;;;;;;16.49;34.77;96404.38;5072610;28;20173;-74
2021/03/31 09:02:29;;;;;;;7.13;3.85;;;;;;;16.49;34.52;96405.22;5071975;28;20221;-74
2021/03/31 09:04:56;;;;;;;5.72;3.38;;;;;;;16.56;34.84;96405.38;5082141;28;20269;-73
2021/03/31 09:07:22;;;;;;;5.32;3.47;;;;;;;16.64;33.91;96402.75;5069489;28;20261;-73
2021/03/31 09:09:48;;;;;;;9.43;3.95;;;;;;;16.73;33.68;96401.00;5077034;28;20605;-74
2021/03/31 09:12:18;;;;;;;5.72;3.78;;;;;;;16.86;33.22;96402.09;5075345;28;20189;-74
2021/03/31 09:14:48;;;;;;;6.35;3.65;;;;;;;16.76;33.20;96405.88;5068492;28;20723;-73
2021/03/31 09:17:33;;;;;;;7.55;4.03;;;;;;;16.89;33.03;96403.59;5081037;28;20189;-74
2021/03/31 09:20:04;;;;;;;9.35;4.30;;;;;;;17.06;33.31;96402.59;5082608;28;20676;-74
2021/03/31 09:22:31;;;;;;;8.77;3.75;;;;;;;17.06;32.72;96397.34;5066606;28;20213;-74
2021/03/31 09:25:08;;;;;;;9.57;4.28;;;;;;;17.15;32.34;96395.53;5076406;28;20196;-73
2021/03/31 09:27:34;;;;;;;7.28;4.38;;;;;;;17.16;32.30;96400.59;5052876;28;20632;-75
2021/03/31 09:30:04;;;;;;;8.35;4.57;;;;;;;17.17;32.39;96390.91;5050260;28;20201;-74
2021/03/31 09:35:12;;;;;;;6.07;4.55;;;;;;;17.44;32.24;96400.19;5066551;28;20268;-74
2021/03/31 09:37:39;;;;;;;9.10;4.68;;;;;;;17.52;32.15;96393.09;5063549;28;20268;-73
2021/03/31 09:40:05;;;;;;;6.88;4.53;;;;;;;17.62;31.48;96378.94;5064177;28;20646;-74
2021/03/31 09:42:33;;;;;;;9.55;4.30;;;;;;;17.61;31.74;96386.00;5067126;28;20217;-74
2021/03/31 09:44:59;;;;;;;10.38;4.60;;;;;;;17.67;31.71;96387.13;5084374;28;20177;-74
2021/03/31 09:47:28;;;;;;;6.63;4.25;;;;;;;17.80;31.32;96380.38;5054402;28;20174;-75
2021/03/31 09:49:54;;;;;;;6.40;5.05;;;;;;;17.88;30.89;96376.06;5060179;28;20188;-76
2021/03/31 09:52:30;;;;;;;7.50;4.28;;;;;;;18.03;31.40;96385.66;5051885;28;20700;-76
2021/03/31 09:55:00;;;;;;;7.28;4.32;;;;;;;18.01;30.02;96382.38;5068312;28;20687;-76
2021/03/31 09:57:26;;;;;;;10.48;4.75;;;;;;;18.11;30.22;96376.94;5082453;28;20189;-75
2021/03/31 09:59:51;;;;;;;8.55;4.80;;;;;;;18.10;30.49;96380.50;5061081;28;20192;-75
2021/03/31 10:02:17;;;;;;;7.80;4.25;;;;;;;18.05;30.45;96375.78;5063451;28;20213;-75
2021/03/31 10:04:43;;;;;;;6.32;4.55;;;;;;;18.20;30.27;96375.03;5056398;28;20186;-75
2021/03/31 10:07:16;;;;;;;6.60;4.30;;;;;;;18.24;30.33;96377.16;5061520;28;20189;-74
2021/03/31 10:09:47;;;;;;;12.60;5.13;;;;;;;18.16;29.90;96366.69;5064364;28;20214;-74
2021/03/31 10:12:19;;;;;;;6.55;4.55;;;;;;;18.17;29.07;96365.69;5064327;28;20776;-75
2021/03/31 10:14:48;;;;;;;6.78;4.72;;;;;;;18.19;29.20;96362.88;5048511;28;20649;-75
2021/03/31 10:17:15;;;;;;;7.70;4.50;;;;;;;18.28;28.83;96360.00;5067697;28;20181;-75
2021/03/31 10:19:40;;;;;;;6.43;4.68;;;;;;;18.43;28.57;96364.53;5077387;28;20189;-74
2021/03/31 10:22:06;;;;;;;7.75;4.47;;;;;;;18.30;28.71;96360.69;5067206;28;20255;-74
2021/03/31 10:24:43;;;;;;;8.40;4.35;;;;;;;18.38;29.20;96365.88;5058932;28;20264;-75
2021/03/31 10:27:09;;;;;;;8.57;4.88;;;;;;;18.35;28.20;96355.69;5074893;28;20174;-74
2021/03/31 10:29:43;;;;;;;12.68;4.75;;;;;;;18.47;28.41;96361.38;5049051;28;20569;-75
2021/03/31 10:32:08;;;;;;;10.40;5.53;;;;;;;18.50;28.77;96363.66;5058860;28;20227;-74
2021/03/31 10:34:42;;;;;;;9.68;5.38;;;;;;;18.51;28.64;96361.81;5066517;28;20582;-74
2021/03/31 10:37:23;;;;;;;9.20;5.05;;;;;;;18.44;28.92;96355.63;5063529;28;20629;-74
2021/03/31 10:48:11;;;;;;;10.55;5.10;;;;;;;18.71;29.12;96356.91;5065733;28;20186;-74
2021/03/31 10:51:08;;;;;;;11.63;5.63;;;;;;;18.74;29.75;96349.50;5070599;28;20256;-74
2021/03/31 10:53:31;;;;;;;10.65;5.30;;;;;;;18.60;30.57;96350.25;5067680;28;20205;-74
2021/03/31 10:55:56;;;;;;;8.70;5.88;;;;;;;18.68;30.46;96347.56;5065605;28;20176;-73
2021/03/31 10:58:21;;;;;;;8.10;5.43;;;;;;;18.75;30.33;96342.44;5066949;28;20178;-73
2021/03/31 11:00:47;;;;;;;12.13;6.25;;;;;;;18.82;30.67;96349.44;5066468;28;20201;-73
2021/03/31 11:03:12;;;;;;;13.65;7.22;;;;;;;18.68;30.90;96340.50;5065642;28;20218;-75
2021/03/31 11:05:37;;;;;;;8.48;5.78;;;;;;;18.67;30.72;96343.31;5058081;28;20630;-74
2021/03/31 11:08:03;;;;;;;15.90;7.13;;;;;;;18.74;31.44;96344.25;5059189;28;20688;-72
2021/03/31 11:10:28;;;;;;;12.65;7.18;;;;;;;18.81;31.48;96339.88;5066418;28;20221;-73
2021/03/31 11:12:53;;;;;;;14.13;5.82;;;;;;;19.02;31.00;96333.91;5063176;28;20240;-73
2021/03/31 11:15:21;;;;;;;11.07;6.90;;;;;;;19.02;31.64;96326.03;5048918;28;20186;-73
2021/03/31 11:18:13;;;;;;;15.02;6.10;;;;;;;19.07;30.05;96330.72;5061536;28;20200;-73
2021/03/31 11:20:53;;;;;;;9.93;5.97;;;;;;;18.98;30.09;96326.56;5068727;28;20669;-74
2021/03/31 11:26:02;;;;;;;7.75;5.43;;;;;;;18.90;30.76;96309.84;5058306;28;20672;-72
2021/03/31 11:28:27;;;;;;;12.75;6.30;;;;;;;19.03;31.41;96319.75;5051783;28;20193;-72
2021/03/31 11:30:54;;;;;;;14.68;6.85;;;;;;;18.87;31.16;96318.09;5056730;28;20173;-72
2021/03/31 11:33:21;;;;;;;11.95;6.85;;;;;;;18.94;31.09;96310.31;5076612;28;20566;-72
2021/03/31 11:35:47;;;;;;;11.70;6.65;;;;;;;19.11;30.65;96316.22;5056796;28;20307;-72
2021/03/31 11:38:13;;;;;;;12.88;6.07;;;;;;;19.13;30.64;96308.94;5069484;28;20657;-72
2021/03/31 11:40:38;;;;;;;10.95;5.90;;;;;;;19.37;32.27;96319.19;5065840;28;20288;-72
2021/03/31 11:43:03;;;;;;;10.45;6.30;;;;;;;19.19;30.69;96308.22;5059022;28;20216;-72
2021/03/31 11:45:29;;;;;;;11.70;6.55;;;;;;;19.17;30.80;96304.94;5048897;28;20653;-72
2021/03/31 11:47:54;;;;;;;9.98;6.00;;;;;;;19.12;30.13;96299.44;5059161;28;20188;-72
2021/03/31 11:50:21;;;;;;;14.50;6.43;;;;;;;19.35;30.62;96307.22;5056839;28;20260;-72